Terminal Aerodrome Forecast
Issued by NWS Wakefield, VA

Home | Current Version | Previous Version | Text Only | Print | Product List | Glossary On
Versions: 1 2 3 4 5 6 7 8 9 10 11 12 13 14 15
663
FTUS41 KAKQ 130552
TAFORF
TAF
KORF 130552Z 1306/1406 28010KT P6SM SCT070
     FM131100 32019G26KT P6SM BKN070
     FM131400 32021G30KT P6SM BKN060
     FM132200 32018G25KT P6SM SCT060
     FM140000 32014G20KT P6SM FEW050=

USA.gov is the U.S. government's official web portal to all federal, state and local government web resources and services.